Time;durP1;ratioP1;P1;durP2;ratioP2;P2;SDS_P1;SDS_P2;PMS_P1;PMS_P2;Temp;Humidity;BMP_temperature;BMP_pressure;BME280_temperature;BME280_humidity;BME280_pressure;Samples;Min_cycle;Max_cycle;Signal;HPM_P1;HPM_P2
2021/11/04 00:02:11;;;;;;;23.27;18.57;;;;;;;;;;4970063;28;20230;-72
2021/11/04 00:04:36;;;;;;;25.57;19.73;;;;;;;;;;4942605;29;20306;-73
2021/11/04 00:07:06;;;;;;;23.47;18.43;;;;;;;;;;4944641;28;20620;-73
2021/11/04 00:09:32;;;;;;;27.13;19.57;;;;;;;;;;4952453;28;20305;-72
2021/11/04 00:11:57;;;;;;;25.33;19.10;;;;;;;;;;4938658;28;20301;-72
2021/11/04 00:14:23;;;;;;;27.30;20.10;;;;;;;;;;4945575;28;20646;-73
2021/11/04 00:16:50;;;;;;;26.73;18.57;;;;;;;;;;4919104;29;20249;-72
2021/11/04 00:19:15;;;;;;;26.37;20.03;;;;;;;;;;4924574;28;20702;-73
2021/11/04 00:21:46;;;;;;;27.80;20.23;;;;;;;;;;4922315;28;20714;-70
2021/11/04 00:24:14;;;;;;;27.10;19.67;;;;;;;;;;4905292;29;20223;-72
2021/11/04 00:26:39;;;;;;;28.90;20.90;;;;;;;;;;4919527;29;20234;-72
2021/11/04 00:29:05;;;;;;;23.70;20.03;;;;;;;;;;4921795;28;20319;-71
2021/11/04 00:31:35;;;;;;;28.87;20.70;;;;;;;;;;4938347;28;20222;-73
2021/11/04 00:34:01;;;;;;;27.23;20.57;;;;;;;;;;4951800;28;20593;-72
2021/11/04 00:36:29;;;;;;;25.73;20.87;;;;;;;;;;4936277;28;20229;-72
2021/11/04 00:38:57;;;;;;;29.50;21.30;;;;;;;;;;4962100;28;20228;-71
2021/11/04 00:41:29;;;;;;;26.43;20.17;;;;;;;;;;4919335;28;20276;-71
2021/11/04 00:43:56;;;;;;;24.63;20.63;;;;;;;;;;4935085;28;20587;-71
2021/11/04 00:46:27;;;;;;;26.53;20.37;;;;;;;;;;4954262;28;20234;-71
2021/11/04 00:48:53;;;;;;;25.77;21.00;;;;;;;;;;4958563;28;20241;-71
2021/11/04 00:51:18;;;;;;;27.80;20.20;;;;;;;;;;4938092;29;20226;-73
2021/11/04 00:53:44;;;;;;;26.33;20.17;;;;;;;;;;4938662;29;20219;-72
2021/11/04 00:56:09;;;;;;;24.30;19.77;;;;;;;;;;4971419;28;20370;-74
2021/11/04 00:58:35;;;;;;;25.60;20.33;;;;;;;;;;4957342;28;20234;-74
2021/11/04 01:01:03;;;;;;;25.93;20.17;;;;;;;;;;4925375;28;20221;-72
2021/11/04 01:03:32;;;;;;;26.60;20.47;;;;;;;;;;4941281;28;20634;-71
2021/11/04 01:06:00;;;;;;;27.30;20.70;;;;;;;;;;4938235;28;20222;-73
2021/11/04 01:08:26;;;;;;;29.67;21.83;;;;;;;;;;4963814;28;20226;-72
2021/11/04 01:10:51;;;;;;;28.50;21.43;;;;;;;;;;4941128;28;20222;-72
2021/11/04 01:13:17;;;;;;;26.87;21.73;;;;;;;;;;4940844;28;20228;-72
2021/11/04 01:15:45;;;;;;;29.43;21.10;;;;;;;;;;4976842;28;20246;-73
2021/11/04 01:18:11;;;;;;;30.50;21.80;;;;;;;;;;4953598;28;20226;-72
2021/11/04 01:20:36;;;;;;;26.23;21.03;;;;;;;;;;4925128;28;20220;-73
2021/11/04 01:23:04;;;;;;;28.90;21.03;;;;;;;;;;4957253;28;20225;-72
2021/11/04 01:25:32;;;;;;;28.93;21.27;;;;;;;;;;4973937;28;20226;-71
2021/11/04 01:28:03;;;;;;;32.87;22.40;;;;;;;;;;4976990;28;20218;-73
2021/11/04 01:30:29;;;;;;;30.10;22.77;;;;;;;;;;4969970;28;20229;-72
2021/11/04 01:32:58;;;;;;;32.60;22.53;;;;;;;;;;4933739;28;20690;-71
2021/11/04 01:35:24;;;;;;;30.20;21.13;;;;;;;;;;4974524;28;20229;-73
2021/11/04 01:37:54;;;;;;;30.23;22.17;;;;;;;;;;4942153;28;20295;-72
2021/11/04 01:40:22;;;;;;;30.67;21.30;;;;;;;;;;4980756;28;20230;-72
2021/11/04 01:42:47;;;;;;;28.83;20.67;;;;;;;;;;4963645;28;20218;-72
2021/11/04 01:45:15;;;;;;;29.53;21.47;;;;;;;;;;4955640;28;20712;-72
2021/11/04 01:47:42;;;;;;;27.20;20.87;;;;;;;;;;4937588;29;20231;-72
2021/11/04 01:50:07;;;;;;;27.67;20.37;;;;;;;;;;4938713;28;20612;-72
2021/11/04 01:52:33;;;;;;;29.57;20.90;;;;;;;;;;4956866;28;20220;-71
2021/11/04 01:54:58;;;;;;;30.73;22.13;;;;;;;;;;4956410;28;20226;-73
2021/11/04 01:57:24;;;;;;;30.00;20.10;;;;;;;;;;4939316;28;20713;-72
2021/11/04 01:59:52;;;;;;;28.20;21.07;;;;;;;;;;4924133;28;20250;-72
2021/11/04 02:02:19;;;;;;;25.90;20.10;;;;;;;;;;4955948;28;20229;-72
2021/11/04 02:04:52;;;;;;;30.47;21.47;;;;;;;;;;4955644;28;20222;-73
2021/11/04 02:07:45;;;;;;;28.57;20.50;;;;;;;;;;4927404;28;20234;-72
2021/11/04 02:10:19;;;;;;;30.43;21.23;;;;;;;;;;4957091;28;20230;-72
2021/11/04 02:12:52;;;;;;;30.03;20.67;;;;;;;;;;4941015;28;20225;-71
2021/11/04 02:15:20;;;;;;;34.60;22.00;;;;;;;;;;4939490;28;20226;-72
2021/11/04 02:17:45;;;;;;;30.87;20.83;;;;;;;;;;4924846;28;20228;-72
2021/11/04 02:20:11;;;;;;;32.50;21.93;;;;;;;;;;4907397;28;20237;-72
2021/11/04 02:22:47;;;;;;;28.93;21.60;;;;;;;;;;4956139;28;20695;-73
2021/11/04 02:25:16;;;;;;;29.87;20.97;;;;;;;;;;4923997;28;20702;-73
2021/11/04 02:28:04;;;;;;;32.23;21.90;;;;;;;;;;4955865;28;20627;-72
2021/11/04 02:30:30;;;;;;;32.67;22.40;;;;;;;;;;4971284;28;20657;-72
2021/11/04 02:32:55;;;;;;;29.97;21.43;;;;;;;;;;4924340;28;20214;-72
2021/11/04 02:35:23;;;;;;;32.60;21.67;;;;;;;;;;4955035;28;20226;-72
2021/11/04 02:37:52;;;;;;;32.80;22.10;;;;;;;;;;4963927;28;20297;-73
2021/11/04 02:40:19;;;;;;;27.93;21.33;;;;;;;;;;4935378;28;20237;-72
2021/11/04 02:42:45;;;;;;;29.53;20.73;;;;;;;;;;4923926;28;20219;-72
2021/11/04 02:45:13;;;;;;;31.83;22.73;;;;;;;;;;4970730;28;20280;-73
2021/11/04 02:47:38;;;;;;;32.67;21.63;;;;;;;;;;4924275;28;20241;-72
2021/11/04 02:50:05;;;;;;;30.73;21.13;;;;;;;;;;4939120;28;20249;-73
2021/11/04 02:52:30;;;;;;;29.20;20.57;;;;;;;;;;4936328;28;20222;-72
2021/11/04 02:54:59;;;;;;;30.90;20.60;;;;;;;;;;4953045;28;20225;-72
2021/11/04 02:57:27;;;;;;;29.40;20.73;;;;;;;;;;4946452;28;20229;-72
2021/11/04 02:59:53;;;;;;;27.77;19.53;;;;;;;;;;4955586;28;20293;-72
2021/11/04 03:02:20;;;;;;;28.40;19.47;;;;;;;;;;4923597;28;20230;-73
2021/11/04 03:04:46;;;;;;;28.50;19.83;;;;;;;;;;4955013;28;20217;-72
2021/11/04 03:07:11;;;;;;;29.40;19.87;;;;;;;;;;4958132;28;20226;-72
2021/11/04 03:09:37;;;;;;;32.70;20.70;;;;;;;;;;4930792;28;20222;-71
2021/11/04 03:12:03;;;;;;;25.80;19.53;;;;;;;;;;4938556;28;20213;-71
2021/11/04 03:14:29;;;;;;;27.60;19.33;;;;;;;;;;4971769;28;20237;-71
2021/11/04 03:16:54;;;;;;;27.80;20.47;;;;;;;;;;4935838;29;20227;-71
2021/11/04 03:19:21;;;;;;;28.80;19.70;;;;;;;;;;4951122;28;20241;-72
2021/11/04 03:21:49;;;;;;;25.97;19.10;;;;;;;;;;4922288;28;20238;-73
2021/11/04 03:24:20;;;;;;;26.97;18.83;;;;;;;;;;4955147;28;20230;-72
2021/11/04 03:26:49;;;;;;;29.20;19.33;;;;;;;;;;4939862;28;20222;-72
2021/11/04 03:29:14;;;;;;;26.80;18.77;;;;;;;;;;4954169;28;20226;-72
2021/11/04 03:31:40;;;;;;;28.03;19.13;;;;;;;;;;4938671;28;20767;-72
2021/11/04 03:34:06;;;;;;;28.07;19.40;;;;;;;;;;4935108;29;20664;-72
2021/11/04 03:36:34;;;;;;;27.10;18.70;;;;;;;;;;4907692;28;20218;-72
2021/11/04 03:38:59;;;;;;;27.70;19.47;;;;;;;;;;4924460;28;20309;-71
2021/11/04 03:41:27;;;;;;;28.80;18.27;;;;;;;;;;4922463;28;20225;-71
2021/11/04 03:43:55;;;;;;;25.33;17.97;;;;;;;;;;4938145;28;20228;-72
2021/11/04 03:46:23;;;;;;;26.67;18.87;;;;;;;;;;4954270;28;20234;-73
2021/11/04 03:48:52;;;;;;;24.27;17.77;;;;;;;;;;4923429;29;20603;-71
2021/11/04 03:51:21;;;;;;;28.27;17.20;;;;;;;;;;4903909;29;20226;-72
2021/11/04 03:53:48;;;;;;;24.10;17.70;;;;;;;;;;4918173;28;20229;-72
2021/11/04 03:56:17;;;;;;;23.73;16.67;;;;;;;;;;4954002;28;20238;-71
2021/11/04 03:58:42;;;;;;;23.80;17.03;;;;;;;;;;4922542;28;20678;-72
2021/11/04 04:01:08;;;;;;;22.40;17.03;;;;;;;;;;4921614;28;20229;-72
2021/11/04 04:03:35;;;;;;;21.37;16.37;;;;;;;;;;4922452;28;20310;-71
2021/11/04 04:06:07;;;;;;;23.00;17.10;;;;;;;;;;4970076;28;20321;-72
2021/11/04 04:08:36;;;;;;;22.17;16.97;;;;;;;;;;4961759;28;20218;-72
2021/11/04 04:11:03;;;;;;;26.00;17.53;;;;;;;;;;4937692;28;20653;-72
2021/11/04 04:13:31;;;;;;;25.17;17.33;;;;;;;;;;4922981;28;20222;-71
2021/11/04 04:15:57;;;;;;;24.67;17.30;;;;;;;;;;4954112;28;20218;-71
2021/11/04 04:18:22;;;;;;;24.07;17.70;;;;;;;;;;4971154;28;20231;-71
2021/11/04 04:20:48;;;;;;;24.40;17.20;;;;;;;;;;4919348;29;20249;-71
2021/11/04 04:23:14;;;;;;;24.00;17.03;;;;;;;;;;4957413;28;20255;-72
2021/11/04 04:25:39;;;;;;;22.17;17.03;;;;;;;;;;4927439;28;20233;-72
2021/11/04 04:28:08;;;;;;;20.70;15.17;;;;;;;;;;4969148;28;20244;-73
2021/11/04 04:30:36;;;;;;;23.87;17.03;;;;;;;;;;4967939;28;20250;-72
2021/11/04 04:33:07;;;;;;;19.87;15.67;;;;;;;;;;4948899;28;20218;-72
2021/11/04 04:35:35;;;;;;;20.37;15.43;;;;;;;;;;4955533;29;20274;-72
2021/11/04 04:38:01;;;;;;;20.83;14.60;;;;;;;;;;4959492;28;20248;-73
2021/11/04 04:40:28;;;;;;;22.77;15.70;;;;;;;;;;4973515;28;20218;-73
2021/11/04 04:42:56;;;;;;;21.33;15.53;;;;;;;;;;4941286;28;20730;-72
2021/11/04 04:45:22;;;;;;;20.90;15.37;;;;;;;;;;4922207;28;20226;-73
2021/11/04 04:47:47;;;;;;;23.03;14.80;;;;;;;;;;4954078;28;20767;-73
2021/11/04 04:50:13;;;;;;;21.10;14.53;;;;;;;;;;4956747;28;20236;-73
2021/11/04 04:52:41;;;;;;;21.60;15.00;;;;;;;;;;4957663;28;20298;-72
2021/11/04 04:55:07;;;;;;;20.03;14.53;;;;;;;;;;4925090;28;20658;-73
2021/11/04 04:57:33;;;;;;;19.97;15.03;;;;;;;;;;4925948;28;20238;-72
2021/11/04 04:59:59;;;;;;;17.43;14.33;;;;;;;;;;4954354;28;20245;-74
2021/11/04 05:02:25;;;;;;;20.60;15.23;;;;;;;;;;4950865;29;20223;-73
2021/11/04 05:04:51;;;;;;;21.63;15.40;;;;;;;;;;4935453;28;20258;-73
2021/11/04 05:07:17;;;;;;;21.43;15.77;;;;;;;;;;4948988;29;20660;-73
2021/11/04 05:09:42;;;;;;;19.77;15.80;;;;;;;;;;4940171;28;20232;-72
2021/11/04 05:12:11;;;;;;;23.90;17.50;;;;;;;;;;4956829;28;20222;-72
2021/11/04 05:14:36;;;;;;;21.77;16.33;;;;;;;;;;4969550;28;20703;-73
2021/11/04 05:17:02;;;;;;;25.00;17.93;;;;;;;;;;4943304;28;20245;-73
2021/11/04 05:19:28;;;;;;;20.97;16.73;;;;;;;;;;4906784;29;20235;-73
2021/11/04 05:21:55;;;;;;;21.27;16.30;;;;;;;;;;4922487;29;20277;-71
2021/11/04 05:24:21;;;;;;;23.43;17.77;;;;;;;;;;4944597;28;20234;-70
2021/11/04 05:26:48;;;;;;;20.40;16.80;;;;;;;;;;4957014;28;20237;-71
2021/11/04 05:29:13;;;;;;;25.50;18.17;;;;;;;;;;4934185;28;20230;-72
2021/11/04 05:31:41;;;;;;;24.07;18.33;;;;;;;;;;4957237;28;20229;-72
2021/11/04 05:34:06;;;;;;;22.67;18.73;;;;;;;;;;4969186;28;20600;-72
2021/11/04 05:36:35;;;;;;;24.73;17.87;;;;;;;;;;4956556;28;20226;-71
2021/11/04 05:39:02;;;;;;;25.60;18.80;;;;;;;;;;4938201;28;20686;-72
2021/11/04 05:41:28;;;;;;;26.47;19.17;;;;;;;;;;4922018;29;20219;-71
2021/11/04 05:43:54;;;;;;;26.13;19.40;;;;;;;;;;4941396;28;20780;-71
2021/11/04 05:46:19;;;;;;;26.03;18.50;;;;;;;;;;4947796;28;20273;-72
2021/11/04 05:48:45;;;;;;;25.80;19.40;;;;;;;;;;4924530;28;20229;-72
2021/11/04 05:51:10;;;;;;;27.23;18.47;;;;;;;;;;4955003;28;20246;-71
2021/11/04 05:53:41;;;;;;;25.23;18.87;;;;;;;;;;4940771;28;20228;-71
2021/11/04 05:56:06;;;;;;;28.60;19.10;;;;;;;;;;4952715;28;20223;-71
2021/11/04 05:58:36;;;;;;;27.67;19.73;;;;;;;;;;4952493;28;20767;-71
2021/11/04 06:01:02;;;;;;;27.40;19.33;;;;;;;;;;4952428;28;20226;-72
2021/11/04 06:03:28;;;;;;;25.40;18.33;;;;;;;;;;4940343;28;20244;-72
2021/11/04 06:05:53;;;;;;;28.57;18.70;;;;;;;;;;4953790;28;20722;-71
2021/11/04 06:08:19;;;;;;;28.60;19.57;;;;;;;;;;4923600;28;20229;-72
2021/11/04 06:10:44;;;;;;;26.63;19.50;;;;;;;;;;4971610;28;20214;-72
2021/11/04 06:13:10;;;;;;;28.37;19.00;;;;;;;;;;4968579;28;20951;-72
2021/11/04 06:15:36;;;;;;;26.93;19.90;;;;;;;;;;4964207;28;20305;-72
2021/11/04 06:18:06;;;;;;;28.17;19.33;;;;;;;;;;4969153;28;20301;-73
2021/11/04 06:20:32;;;;;;;30.17;19.00;;;;;;;;;;4931792;28;20229;-71
2021/11/04 06:22:57;;;;;;;30.73;19.83;;;;;;;;;;4925827;28;20602;-72
2021/11/04 06:25:23;;;;;;;27.77;19.33;;;;;;;;;;4939165;28;20235;-73
2021/11/04 06:27:49;;;;;;;26.17;19.97;;;;;;;;;;4939812;28;20233;-72
2021/11/04 06:30:14;;;;;;;28.53;19.97;;;;;;;;;;4943783;28;20237;-74
2021/11/04 06:32:42;;;;;;;27.30;19.20;;;;;;;;;;4946424;28;20767;-73
2021/11/04 06:35:10;;;;;;;28.50;19.60;;;;;;;;;;4942414;28;20230;-72
2021/11/04 06:37:36;;;;;;;29.37;20.33;;;;;;;;;;4953026;28;20234;-72
2021/11/04 06:40:05;;;;;;;27.63;20.30;;;;;;;;;;4960965;28;20235;-73
2021/11/04 06:42:31;;;;;;;29.70;20.00;;;;;;;;;;4916410;28;20243;-73
2021/11/04 06:44:58;;;;;;;27.00;19.03;;;;;;;;;;4931733;28;20310;-72
2021/11/04 06:47:59;;;;;;;26.47;19.67;;;;;;;;;;4918913;28;20222;-73
2021/11/04 06:50:27;;;;;;;24.27;18.07;;;;;;;;;;4948213;29;20276;-74
2021/11/04 06:53:00;;;;;;;27.30;20.10;;;;;;;;;;4916443;29;20715;-72
2021/11/04 06:55:27;;;;;;;26.33;17.97;;;;;;;;;;4959524;28;20226;-73
2021/11/04 06:57:53;;;;;;;22.37;17.80;;;;;;;;;;4924971;28;20256;-73
2021/11/04 07:00:18;;;;;;;24.73;17.90;;;;;;;;;;4921030;28;20318;-72
2021/11/04 07:02:44;;;;;;;25.57;18.83;;;;;;;;;;4905204;29;20226;-73
2021/11/04 07:05:13;;;;;;;26.43;18.63;;;;;;;;;;4903834;28;20230;-73
2021/11/04 07:07:51;;;;;;;23.73;17.90;;;;;;;;;;4946313;28;20230;-72
2021/11/04 07:10:18;;;;;;;23.23;17.90;;;;;;;;;;4956731;28;20310;-73
2021/11/04 07:12:48;;;;;;;25.90;18.53;;;;;;;;;;4923705;28;20250;-75
2021/11/04 07:15:14;;;;;;;23.70;18.37;;;;;;;;;;4938419;28;20353;-73
2021/11/04 07:17:44;;;;;;;24.90;17.90;;;;;;;;;;4939625;28;20763;-73
2021/11/04 07:20:10;;;;;;;23.87;17.57;;;;;;;;;;4954092;28;20233;-73
2021/11/04 07:22:52;;;;;;;23.30;17.43;;;;;;;;;;4923425;28;20280;-73
2021/11/04 07:25:20;;;;;;;22.97;16.60;;;;;;;;;;4935360;28;20223;-72
2021/11/04 07:27:56;;;;;;;20.57;16.10;;;;;;;;;;4951739;28;20233;-73
2021/11/04 07:30:25;;;;;;;19.20;15.37;;;;;;;;;;4968402;28;20222;-72
2021/11/04 07:32:58;;;;;;;20.10;16.37;;;;;;;;;;4938705;28;20232;-74
2021/11/04 07:35:36;;;;;;;21.33;16.03;;;;;;;;;;4937716;28;20296;-72
2021/11/04 07:38:05;;;;;;;19.10;15.07;;;;;;;;;;4930410;28;20246;-72
2021/11/04 07:40:31;;;;;;;19.90;14.57;;;;;;;;;;4952282;28;20316;-73
2021/11/04 07:42:56;;;;;;;19.10;15.00;;;;;;;;;;4922951;28;20277;-72
2021/11/04 07:45:22;;;;;;;18.93;15.10;;;;;;;;;;4937840;28;20233;-73
2021/11/04 07:47:50;;;;;;;19.13;16.00;;;;;;;;;;4938645;29;20227;-72
2021/11/04 07:50:19;;;;;;;19.80;14.70;;;;;;;;;;4934431;29;20743;-73
2021/11/04 07:52:44;;;;;;;19.57;14.93;;;;;;;;;;4949725;28;20249;-74
2021/11/04 07:55:10;;;;;;;19.87;14.27;;;;;;;;;;4937351;28;20288;-75
2021/11/04 07:57:40;;;;;;;18.87;15.80;;;;;;;;;;4954291;28;20783;-73
2021/11/04 08:00:08;;;;;;;21.20;16.43;;;;;;;;;;4937682;28;20226;-73
2021/11/04 08:02:36;;;;;;;18.93;16.00;;;;;;;;;;4911878;29;20222;-73
2021/11/04 08:05:02;;;;;;;18.50;15.97;;;;;;;;;;4934920;29;20230;-73
2021/11/04 08:07:33;;;;;;;20.60;16.00;;;;;;;;;;4944585;28;20261;-73
2021/11/04 08:10:04;;;;;;;19.27;15.67;;;;;;;;;;4948946;28;20256;-73
2021/11/04 08:12:34;;;;;;;22.77;16.37;;;;;;;;;;4954209;28;20281;-73
2021/11/04 08:15:00;;;;;;;21.47;15.70;;;;;;;;;;4970086;28;20689;-73
2021/11/04 08:17:26;;;;;;;20.73;15.80;;;;;;;;;;4938232;28;20700;-74
2021/11/04 08:19:52;;;;;;;21.47;15.53;;;;;;;;;;4937998;28;20268;-73
2021/11/04 08:22:17;;;;;;;17.67;14.97;;;;;;;;;;4922566;29;20655;-74
2021/11/04 08:24:47;;;;;;;18.60;14.87;;;;;;;;;;4934775;29;20645;-73
2021/11/04 08:27:15;;;;;;;16.90;14.27;;;;;;;;;;4940841;28;20280;-72
2021/11/04 08:29:41;;;;;;;16.10;13.50;;;;;;;;;;4938236;28;20258;-73
2021/11/04 08:32:08;;;;;;;14.93;12.90;;;;;;;;;;4953717;28;20218;-73
2021/11/04 08:34:34;;;;;;;14.40;12.50;;;;;;;;;;4953452;28;20226;-73
2021/11/04 08:37:00;;;;;;;15.03;13.20;;;;;;;;;;4971096;28;20222;-74
2021/11/04 08:39:32;;;;;;;13.97;12.03;;;;;;;;;;4961839;28;20280;-74
2021/11/04 08:41:58;;;;;;;14.63;12.10;;;;;;;;;;4951895;28;20264;-74
2021/11/04 08:44:24;;;;;;;13.10;11.70;;;;;;;;;;4950012;28;20211;-73
2021/11/04 08:46:50;;;;;;;13.47;11.00;;;;;;;;;;4950548;28;20697;-72
2021/11/04 08:49:20;;;;;;;13.60;10.83;;;;;;;;;;4937179;28;20242;-74
2021/11/04 08:51:50;;;;;;;13.03;11.07;;;;;;;;;;4953696;28;20225;-74
2021/11/04 08:54:16;;;;;;;11.50;9.53;;;;;;;;;;4937449;28;20218;-74
2021/11/04 08:56:42;;;;;;;13.77;10.53;;;;;;;;;;4953752;28;20665;-74
2021/11/04 08:59:10;;;;;;;13.17;9.90;;;;;;;;;;4921794;28;20238;-73
2021/11/04 09:01:36;;;;;;;11.30;9.53;;;;;;;;;;4938206;28;20301;-74
2021/11/04 09:04:04;;;;;;;12.87;10.27;;;;;;;;;;4937990;28;20226;-72
2021/11/04 09:06:29;;;;;;;12.97;11.63;;;;;;;;;;4953486;28;20237;-74
2021/11/04 09:08:55;;;;;;;10.13;8.87;;;;;;;;;;4926205;28;20225;-72
2021/11/04 09:11:21;;;;;;;11.83;9.70;;;;;;;;;;4957386;28;20727;-73
2021/11/04 09:13:47;;;;;;;13.03;9.67;;;;;;;;;;4941982;28;20221;-73
2021/11/04 09:16:12;;;;;;;10.83;9.33;;;;;;;;;;4956144;28;20225;-72
2021/11/04 09:18:38;;;;;;;12.40;9.53;;;;;;;;;;4925636;28;20321;-73
2021/11/04 09:21:04;;;;;;;13.00;9.40;;;;;;;;;;4973830;28;20296;-72
2021/11/04 09:23:29;;;;;;;12.07;9.70;;;;;;;;;;4973162;28;20249;-73
2021/11/04 09:25:57;;;;;;;12.03;10.17;;;;;;;;;;4956038;28;20210;-74
2021/11/04 09:28:27;;;;;;;12.67;10.13;;;;;;;;;;4933621;28;20222;-74
2021/11/04 09:30:53;;;;;;;12.97;10.27;;;;;;;;;;4923366;29;20243;-73
2021/11/04 09:33:19;;;;;;;13.80;10.53;;;;;;;;;;4959241;28;20309;-73
2021/11/04 09:35:49;;;;;;;13.97;10.27;;;;;;;;;;4924739;28;20225;-73
2021/11/04 09:38:15;;;;;;;12.90;10.47;;;;;;;;;;4947076;28;20224;-73
2021/11/04 09:40:41;;;;;;;13.83;10.70;;;;;;;;;;4956774;28;20620;-72
2021/11/04 09:43:07;;;;;;;14.83;10.77;;;;;;;;;;4937577;28;20210;-72
2021/11/04 09:45:33;;;;;;;15.43;11.60;;;;;;;;;;4952748;28;20222;-73
2021/11/04 09:47:59;;;;;;;15.73;11.50;;;;;;;;;;4954703;28;20232;-72
2021/11/04 09:50:25;;;;;;;15.27;11.27;;;;;;;;;;4972765;28;20762;-73
2021/11/04 09:52:54;;;;;;;16.27;11.43;;;;;;;;;;4956570;28;20384;-74
2021/11/04 09:55:20;;;;;;;14.77;11.53;;;;;;;;;;4921367;29;20732;-74
2021/11/04 09:57:49;;;;;;;13.23;11.13;;;;;;;;;;4921513;29;20744;-73
2021/11/04 10:00:18;;;;;;;16.03;12.63;;;;;;;;;;4954564;28;20226;-74
2021/11/04 10:02:45;;;;;;;16.67;12.70;;;;;;;;;;4940949;28;20727;-73
2021/11/04 10:05:12;;;;;;;14.90;12.10;;;;;;;;;;4939787;28;20217;-74
2021/11/04 10:07:46;;;;;;;15.97;11.83;;;;;;;;;;4928989;28;20234;-72
2021/11/04 10:10:12;;;;;;;15.73;11.97;;;;;;;;;;4947765;28;20245;-73
2021/11/04 10:13:16;;;;;;;14.87;12.43;;;;;;;;;;4940570;28;20206;-72
2021/11/04 10:15:46;;;;;;;13.40;10.93;;;;;;;;;;4912951;29;20577;-74
2021/11/04 10:18:14;;;;;;;15.07;11.77;;;;;;;;;;4881002;29;20631;-74
2021/11/04 10:20:42;;;;;;;16.20;11.60;;;;;;;;;;4926100;29;20227;-75
2021/11/04 10:23:13;;;;;;;16.70;11.33;;;;;;;;;;4952483;29;20228;-73
2021/11/04 10:25:39;;;;;;;13.90;10.97;;;;;;;;;;4922440;28;20214;-72
2021/11/04 10:28:30;;;;;;;15.10;11.37;;;;;;;;;;4923518;28;20233;-74
2021/11/04 10:30:56;;;;;;;14.13;10.70;;;;;;;;;;4969044;28;20723;-72
2021/11/04 10:33:28;;;;;;;12.77;11.20;;;;;;;;;;4920711;28;20340;-74
2021/11/04 10:35:54;;;;;;;14.97;10.97;;;;;;;;;;4954494;28;20264;-73
2021/11/04 10:38:37;;;;;;;15.40;11.77;;;;;;;;;;4936813;28;20231;-73
2021/11/04 10:41:05;;;;;;;12.87;11.43;;;;;;;;;;4955196;28;20257;-72
2021/11/04 10:43:30;;;;;;;14.40;12.20;;;;;;;;;;4939856;28;20229;-73
2021/11/04 10:46:03;;;;;;;15.20;11.67;;;;;;;;;;4955670;28;20301;-73
2021/11/04 10:48:30;;;;;;;15.17;11.80;;;;;;;;;;4955110;28;20253;-72
2021/11/04 10:50:57;;;;;;;15.27;12.20;;;;;;;;;;4938819;29;20215;-75
2021/11/04 10:53:26;;;;;;;15.87;12.00;;;;;;;;;;4904872;29;20692;-73
2021/11/04 10:55:55;;;;;;;14.30;11.70;;;;;;;;;;4950849;28;20230;-74
2021/11/04 10:58:27;;;;;;;14.70;12.07;;;;;;;;;;4923336;28;20261;-74
2021/11/04 11:00:55;;;;;;;16.20;12.20;;;;;;;;;;4967804;28;20665;-73
2021/11/04 11:03:22;;;;;;;16.73;12.87;;;;;;;;;;4935665;29;20309;-73
2021/11/04 11:05:48;;;;;;;15.17;12.03;;;;;;;;;;4933271;28;20226;-73
2021/11/04 11:08:14;;;;;;;15.70;12.77;;;;;;;;;;4962600;28;20241;-73
2021/11/04 11:10:41;;;;;;;14.80;12.60;;;;;;;;;;4945482;28;20224;-74
2021/11/04 11:13:06;;;;;;;14.57;12.80;;;;;;;;;;4938444;28;20230;-74
2021/11/04 11:15:33;;;;;;;14.00;12.50;;;;;;;;;;4961181;28;20249;-73
2021/11/04 11:18:04;;;;;;;16.43;13.40;;;;;;;;;;4951817;29;20223;-72
2021/11/04 11:20:35;;;;;;;17.47;12.20;;;;;;;;;;4962103;28;20943;-73
2021/11/04 11:23:02;;;;;;;14.37;12.67;;;;;;;;;;4954876;28;20230;-74
2021/11/04 11:25:33;;;;;;;16.73;11.57;;;;;;;;;;4922568;28;20222;-73
2021/11/04 11:27:59;;;;;;;14.93;11.90;;;;;;;;;;4938871;28;20233;-73
2021/11/04 11:30:27;;;;;;;16.77;12.70;;;;;;;;;;4953804;28;20218;-72
2021/11/04 11:33:23;;;;;;;13.47;12.07;;;;;;;;;;4923215;28;20218;-75
2021/11/04 11:36:10;;;;;;;14.77;12.57;;;;;;;;;;4967392;28;20226;-73
2021/11/04 11:38:56;;;;;;;13.83;12.07;;;;;;;;;;4968408;28;20226;-73
2021/11/04 11:41:28;;;;;;;14.33;12.07;;;;;;;;;;4948545;28;20667;-73
2021/11/04 11:44:02;;;;;;;17.13;12.43;;;;;;;;;;4939151;28;20238;-73
2021/11/04 11:46:33;;;;;;;15.67;12.97;;;;;;;;;;4937021;28;20308;-73
2021/11/04 11:49:10;;;;;;;19.20;15.57;;;;;;;;;;4938644;28;20221;-73
2021/11/04 11:51:38;;;;;;;16.17;13.20;;;;;;;;;;4957531;28;20234;-73
2021/11/04 11:54:04;;;;;;;14.67;12.53;;;;;;;;;;4935550;29;20258;-72
2021/11/04 11:56:37;;;;;;;16.80;12.80;;;;;;;;;;4943738;28;20305;-74
2021/11/04 11:59:21;;;;;;;16.23;12.83;;;;;;;;;;4953909;28;20241;-73
2021/11/04 12:01:47;;;;;;;16.77;13.27;;;;;;;;;;4954818;28;20329;-72
2021/11/04 12:04:25;;;;;;;15.00;12.50;;;;;;;;;;4954119;28;20711;-75
2021/11/04 12:06:54;;;;;;;17.30;12.27;;;;;;;;;;4963512;28;20249;-73
2021/11/04 12:09:39;;;;;;;14.57;12.40;;;;;;;;;;4951260;28;20218;-72
2021/11/04 12:12:08;;;;;;;15.33;12.13;;;;;;;;;;4966247;28;20236;-72
2021/11/04 12:14:39;;;;;;;18.77;13.70;;;;;;;;;;4932732;28;20696;-72
2021/11/04 12:17:05;;;;;;;16.17;12.37;;;;;;;;;;4960864;28;20222;-74
2021/11/04 12:19:45;;;;;;;14.83;12.63;;;;;;;;;;4961920;28;20237;-72
2021/11/04 12:22:30;;;;;;;15.67;13.10;;;;;;;;;;4933722;28;20229;-72
2021/11/04 12:25:02;;;;;;;16.27;13.47;;;;;;;;;;4931317;28;20251;-72
2021/11/04 12:27:39;;;;;;;15.10;13.50;;;;;;;;;;4945114;28;20250;-73
2021/11/04 12:30:23;;;;;;;17.57;13.73;;;;;;;;;;4955269;28;20244;-72
2021/11/04 12:33:11;;;;;;;17.03;13.07;;;;;;;;;;4954752;28;20218;-72
2021/11/04 12:35:57;;;;;;;16.83;13.10;;;;;;;;;;4947871;28;20218;-74
2021/11/04 12:38:36;;;;;;;17.27;13.40;;;;;;;;;;4946064;28;20300;-71
2021/11/04 12:41:24;;;;;;;18.73;14.43;;;;;;;;;;4924917;28;20218;-71
2021/11/04 12:43:50;;;;;;;14.87;13.17;;;;;;;;;;4958681;28;20222;-71
2021/11/04 12:46:24;;;;;;;16.93;13.97;;;;;;;;;;4953645;29;20767;-75
2021/11/04 12:48:53;;;;;;;16.80;13.87;;;;;;;;;;4939578;29;20219;-73
2021/11/04 12:51:23;;;;;;;16.20;13.23;;;;;;;;;;4927692;28;20293;-72
2021/11/04 12:53:52;;;;;;;17.77;14.00;;;;;;;;;;4958588;28;20253;-72
2021/11/04 12:56:17;;;;;;;17.23;13.50;;;;;;;;;;4941734;28;20272;-73
2021/11/04 12:58:43;;;;;;;17.50;13.57;;;;;;;;;;4959586;28;20214;-72
2021/11/04 13:01:08;;;;;;;16.77;13.17;;;;;;;;;;4940883;28;20214;-72
2021/11/04 13:03:35;;;;;;;14.20;10.87;;;;;;;;;;4956204;29;20222;-73
2021/11/04 13:06:05;;;;;;;13.43;11.83;;;;;;;;;;4938689;29;20739;-71
2021/11/04 13:08:31;;;;;;;14.47;11.93;;;;;;;;;;4939793;28;20312;-72
2021/11/04 13:11:01;;;;;;;15.30;12.37;;;;;;;;;;4923294;29;20211;-73
2021/11/04 13:13:27;;;;;;;13.60;11.30;;;;;;;;;;4924740;28;20214;-74
2021/11/04 13:15:53;;;;;;;14.80;12.23;;;;;;;;;;4925016;28;20824;-72
2021/11/04 13:18:21;;;;;;;15.63;11.60;;;;;;;;;;4940612;28;20230;-71
2021/11/04 13:20:49;;;;;;;16.30;10.90;;;;;;;;;;4941814;28;20229;-71
2021/11/04 13:23:25;;;;;;;12.60;10.67;;;;;;;;;;4941663;28;20222;-73
2021/11/04 13:25:57;;;;;;;12.37;9.87;;;;;;;;;;4942560;28;20222;-72
2021/11/04 13:28:28;;;;;;;14.47;10.90;;;;;;;;;;4939450;29;20250;-72
2021/11/04 13:30:56;;;;;;;11.80;9.73;;;;;;;;;;4922079;29;20301;-74
2021/11/04 13:33:31;;;;;;;13.33;10.20;;;;;;;;;;4951971;28;20210;-73
2021/11/04 13:36:00;;;;;;;13.40;10.30;;;;;;;;;;4910809;28;20230;-73
2021/11/04 13:38:28;;;;;;;12.10;9.97;;;;;;;;;;4955958;28;20222;-72
2021/11/04 13:40:55;;;;;;;11.33;9.43;;;;;;;;;;4922501;29;20226;-73
2021/11/04 13:43:40;;;;;;;13.07;9.63;;;;;;;;;;4950975;28;20708;-73
2021/11/04 13:46:07;;;;;;;11.83;9.00;;;;;;;;;;4940962;28;20228;-73
2021/11/04 13:48:40;;;;;;;10.83;9.50;;;;;;;;;;4941592;28;20273;-73
2021/11/04 13:51:06;;;;;;;10.23;8.87;;;;;;;;;;4940173;28;20222;-72
2021/11/04 13:53:34;;;;;;;11.37;9.33;;;;;;;;;;4928417;29;20278;-73
2021/11/04 13:56:09;;;;;;;12.00;9.00;;;;;;;;;;4915604;28;20221;-73
2021/11/04 13:58:44;;;;;;;9.87;8.30;;;;;;;;;;4919976;28;20233;-74
2021/11/04 14:01:09;;;;;;;11.93;8.60;;;;;;;;;;4949371;28;20226;-75
2021/11/04 14:03:35;;;;;;;11.17;8.93;;;;;;;;;;4948742;28;20223;-76
2021/11/04 14:06:01;;;;;;;11.83;9.40;;;;;;;;;;4954804;28;20218;-74
2021/11/04 14:08:46;;;;;;;13.77;9.03;;;;;;;;;;4937670;28;20605;-73
2021/11/04 14:11:13;;;;;;;13.07;9.30;;;;;;;;;;4955680;28;20230;-73
2021/11/04 14:13:51;;;;;;;11.47;9.37;;;;;;;;;;4956550;28;20229;-74
2021/11/04 14:16:35;;;;;;;13.80;9.50;;;;;;;;;;4971791;28;20301;-75
2021/11/04 14:19:04;;;;;;;14.63;11.43;;;;;;;;;;4970708;28;20234;-74
2021/11/04 14:21:31;;;;;;;15.67;10.50;;;;;;;;;;4954688;28;20280;-74
2021/11/04 14:23:58;;;;;;;13.03;10.80;;;;;;;;;;4944096;29;20214;-74
2021/11/04 14:26:27;;;;;;;15.60;11.27;;;;;;;;;;4968771;28;20648;-74
2021/11/04 14:28:56;;;;;;;14.13;11.77;;;;;;;;;;4948059;28;20230;-74